sensor_id;sensor_type;location;lat;lon;timestamp;temperature;humidity
16271;DHT22;8243;49.048;8.396;2022-07-22T00:00:36;19.50;99.90
16271;DHT22;8243;49.048;8.396;2022-07-22T00:03:02;19.60;99.90
16271;DHT22;8243;49.048;8.396;2022-07-22T00:05:28;19.60;99.90
16271;DHT22;8243;49.048;8.396;2022-07-22T00:07:53;19.70;99.80
16271;DHT22;8243;49.048;8.396;2022-07-22T00:10:19;19.70;99.70
16271;DHT22;8243;49.048;8.396;2022-07-22T00:12:44;19.60;99.90
16271;DHT22;8243;49.048;8.396;2022-07-22T00:15:10;19.50;99.90
16271;DHT22;8243;49.048;8.396;2022-07-22T00:17:36;19.30;99.90
16271;DHT22;8243;49.048;8.396;2022-07-22T00:20:03;19.30;99.90
16271;DHT22;8243;49.048;8.396;2022-07-22T00:22:29;19.30;99.90
16271;DHT22;8243;49.048;8.396;2022-07-22T00:24:54;19.10;99.90
16271;DHT22;8243;49.048;8.396;2022-07-22T00:27:20;19.10;99.90
16271;DHT22;8243;49.048;8.396;2022-07-22T00:29:45;19.00;99.90
16271;DHT22;8243;49.048;8.396;2022-07-22T00:32:11;19.00;99.90
16271;DHT22;8243;49.048;8.396;2022-07-22T00:34:36;18.90;99.90
16271;DHT22;8243;49.048;8.396;2022-07-22T00:37:02;18.80;99.90
16271;DHT22;8243;49.048;8.396;2022-07-22T00:39:27;18.80;99.90
16271;DHT22;8243;49.048;8.396;2022-07-22T00:41:53;18.80;99.90
16271;DHT22;8243;49.048;8.396;2022-07-22T00:44:19;18.70;99.90
16271;DHT22;8243;49.048;8.396;2022-07-22T00:46:44;18.60;99.90
16271;DHT22;8243;49.048;8.396;2022-07-22T00:49:10;18.50;99.90
16271;DHT22;8243;49.048;8.396;2022-07-22T00:51:36;18.50;99.90
16271;DHT22;8243;49.048;8.396;2022-07-22T00:54:04;18.40;99.90
16271;DHT22;8243;49.048;8.396;2022-07-22T00:56:30;18.50;99.90
16271;DHT22;8243;49.048;8.396;2022-07-22T00:58:59;18.40;99.90
16271;DHT22;8243;49.048;8.396;2022-07-22T01:01:25;18.40;99.90
16271;DHT22;8243;49.048;8.396;2022-07-22T01:03:51;18.50;99.90
16271;DHT22;8243;49.048;8.396;2022-07-22T01:06:17;18.50;99.90
16271;DHT22;8243;49.048;8.396;2022-07-22T01:08:43;18.50;99.90
16271;DHT22;8243;49.048;8.396;2022-07-22T01:11:14;18.40;99.90
16271;DHT22;8243;49.048;8.396;2022-07-22T01:13:40;18.40;99.90
16271;DHT22;8243;49.048;8.396;2022-07-22T01:16:07;18.50;99.90
16271;DHT22;8243;49.048;8.396;2022-07-22T01:18:32;18.50;99.90
16271;DHT22;8243;49.048;8.396;2022-07-22T01:20:58;18.50;99.90
16271;DHT22;8243;49.048;8.396;2022-07-22T01:23:24;18.50;99.90
16271;DHT22;8243;49.048;8.396;2022-07-22T01:29:27;18.50;99.90
16271;DHT22;8243;49.048;8.396;2022-07-22T01:31:52;18.50;99.90
16271;DHT22;8243;49.048;8.396;2022-07-22T01:34:18;18.60;99.90
16271;DHT22;8243;49.048;8.396;2022-07-22T01:36:44;18.60;99.90
16271;DHT22;8243;49.048;8.396;2022-07-22T01:39:09;18.70;99.90
16271;DHT22;8243;49.048;8.396;2022-07-22T01:41:35;18.60;99.90
16271;DHT22;8243;49.048;8.396;2022-07-22T01:44:00;18.60;99.90
16271;DHT22;8243;49.048;8.396;2022-07-22T01:46:26;18.60;99.90
16271;DHT22;8243;49.048;8.396;2022-07-22T01:48:52;18.60;99.90
16271;DHT22;8243;49.048;8.396;2022-07-22T01:51:18;18.50;99.90
16271;DHT22;8243;49.048;8.396;2022-07-22T01:53:44;18.40;99.90
16271;DHT22;8243;49.048;8.396;2022-07-22T01:56:10;18.40;99.90
16271;DHT22;8243;49.048;8.396;2022-07-22T01:58:36;18.40;99.90
16271;DHT22;8243;49.048;8.396;2022-07-22T02:01:01;18.40;99.90
16271;DHT22;8243;49.048;8.396;2022-07-22T02:03:27;18.40;99.90
16271;DHT22;8243;49.048;8.396;2022-07-22T02:05:53;18.40;99.90
16271;DHT22;8243;49.048;8.396;2022-07-22T02:08:18;18.40;99.90
16271;DHT22;8243;49.048;8.396;2022-07-22T02:10:44;18.50;99.90
16271;DHT22;8243;49.048;8.396;2022-07-22T02:13:10;18.50;99.90
16271;DHT22;8243;49.048;8.396;2022-07-22T02:15:36;18.50;99.90
16271;DHT22;8243;49.048;8.396;2022-07-22T02:18:17;18.50;99.90
16271;DHT22;8243;49.048;8.396;2022-07-22T02:20:43;18.60;99.90
16271;DHT22;8243;49.048;8.396;2022-07-22T02:23:09;18.60;99.90
16271;DHT22;8243;49.048;8.396;2022-07-22T02:25:37;18.50;99.90
16271;DHT22;8243;49.048;8.396;2022-07-22T02:28:03;18.30;99.90
16271;DHT22;8243;49.048;8.396;2022-07-22T02:30:29;18.30;99.90
16271;DHT22;8243;49.048;8.396;2022-07-22T02:32:56;18.30;99.90
16271;DHT22;8243;49.048;8.396;2022-07-22T02:35:22;18.30;99.90
16271;DHT22;8243;49.048;8.396;2022-07-22T02:37:47;18.20;99.90
16271;DHT22;8243;49.048;8.396;2022-07-22T02:40:13;18.10;99.90
16271;DHT22;8243;49.048;8.396;2022-07-22T02:42:39;18.10;99.90
16271;DHT22;8243;49.048;8.396;2022-07-22T02:45:04;17.90;99.90
16271;DHT22;8243;49.048;8.396;2022-07-22T02:47:30;17.90;99.90
16271;DHT22;8243;49.048;8.396;2022-07-22T02:49:56;17.80;99.90
16271;DHT22;8243;49.048;8.396;2022-07-22T02:52:22;17.80;99.90
16271;DHT22;8243;49.048;8.396;2022-07-22T02:54:47;17.70;99.90
16271;DHT22;8243;49.048;8.396;2022-07-22T02:57:13;17.60;99.90
16271;DHT22;8243;49.048;8.396;2022-07-22T02:59:38;17.50;99.90
16271;DHT22;8243;49.048;8.396;2022-07-22T03:02:04;17.50;99.90
16271;DHT22;8243;49.048;8.396;2022-07-22T03:04:29;17.50;99.90
16271;DHT22;8243;49.048;8.396;2022-07-22T03:06:55;17.50;99.90
16271;DHT22;8243;49.048;8.396;2022-07-22T03:09:20;17.50;99.90
16271;DHT22;8243;49.048;8.396;2022-07-22T03:11:46;17.50;99.90
16271;DHT22;8243;49.048;8.396;2022-07-22T03:14:12;17.60;99.90
16271;DHT22;8243;49.048;8.396;2022-07-22T03:16:38;17.50;99.90
16271;DHT22;8243;49.048;8.396;2022-07-22T03:19:03;17.50;99.90
16271;DHT22;8243;49.048;8.396;2022-07-22T03:21:29;17.60;99.90
16271;DHT22;8243;49.048;8.396;2022-07-22T03:23:54;17.60;99.90
16271;DHT22;8243;49.048;8.396;2022-07-22T03:26:23;17.70;99.90
16271;DHT22;8243;49.048;8.396;2022-07-22T03:28:50;17.70;99.90
16271;DHT22;8243;49.048;8.396;2022-07-22T03:31:16;17.70;99.90
16271;DHT22;8243;49.048;8.396;2022-07-22T03:33:41;17.70;99.90
16271;DHT22;8243;49.048;8.396;2022-07-22T03:36:07;17.70;99.90
16271;DHT22;8243;49.048;8.396;2022-07-22T03:38:36;17.70;99.90
16271;DHT22;8243;49.048;8.396;2022-07-22T03:41:03;17.70;99.90
16271;DHT22;8243;49.048;8.396;2022-07-22T03:43:29;17.70;99.90
16271;DHT22;8243;49.048;8.396;2022-07-22T03:45:54;17.70;99.90
16271;DHT22;8243;49.048;8.396;2022-07-22T03:48:20;17.60;99.90
16271;DHT22;8243;49.048;8.396;2022-07-22T03:50:45;17.60;99.90
16271;DHT22;8243;49.048;8.396;2022-07-22T03:53:11;17.60;99.90
16271;DHT22;8243;49.048;8.396;2022-07-22T03:55:37;17.60;99.90
16271;DHT22;8243;49.048;8.396;2022-07-22T03:58:02;17.60;99.90
16271;DHT22;8243;49.048;8.396;2022-07-22T04:00:28;17.60;99.90
16271;DHT22;8243;49.048;8.396;2022-07-22T04:02:54;17.60;99.90
16271;DHT22;8243;49.048;8.396;2022-07-22T04:05:19;17.60;99.90
16271;DHT22;8243;49.048;8.396;2022-07-22T04:07:45;17.60;99.90
16271;DHT22;8243;49.048;8.396;2022-07-22T04:10:10;17.60;99.90
16271;DHT22;8243;49.048;8.396;2022-07-22T04:12:38;17.70;99.90
16271;DHT22;8243;49.048;8.396;2022-07-22T04:15:05;17.70;99.90
16271;DHT22;8243;49.048;8.396;2022-07-22T04:17:31;17.80;99.90
16271;DHT22;8243;49.048;8.396;2022-07-22T04:19:56;17.90;99.90
16271;DHT22;8243;49.048;8.396;2022-07-22T04:22:23;18.10;99.90
16271;DHT22;8243;49.048;8.396;2022-07-22T04:24:48;18.50;99.90
16271;DHT22;8243;49.048;8.396;2022-07-22T04:27:14;18.90;99.90
16271;DHT22;8243;49.048;8.396;2022-07-22T04:29:39;19.10;99.90
16271;DHT22;8243;49.048;8.396;2022-07-22T04:32:05;19.50;99.90
16271;DHT22;8243;49.048;8.396;2022-07-22T04:34:31;19.70;99.90
16271;DHT22;8243;49.048;8.396;2022-07-22T04:36:57;20.10;99.90
16271;DHT22;8243;49.048;8.396;2022-07-22T04:39:22;20.50;99.90
16271;DHT22;8243;49.048;8.396;2022-07-22T04:41:48;20.90;99.90
16271;DHT22;8243;49.048;8.396;2022-07-22T04:44:13;21.10;99.90
16271;DHT22;8243;49.048;8.396;2022-07-22T04:46:39;21.50;95.50
16271;DHT22;8243;49.048;8.396;2022-07-22T04:49:04;21.80;91.20
16271;DHT22;8243;49.048;8.396;2022-07-22T04:51:30;22.00;85.00
16271;DHT22;8243;49.048;8.396;2022-07-22T04:53:55;22.10;82.90
16271;DHT22;8243;49.048;8.396;2022-07-22T04:56:21;22.20;80.30
16271;DHT22;8243;49.048;8.396;2022-07-22T04:58:47;22.70;71.20
16271;DHT22;8243;49.048;8.396;2022-07-22T05:01:13;23.20;64.80
16271;DHT22;8243;49.048;8.396;2022-07-22T05:03:39;23.40;62.00
16271;DHT22;8243;49.048;8.396;2022-07-22T05:06:08;23.60;57.80
16271;DHT22;8243;49.048;8.396;2022-07-22T05:08:34;23.50;55.50
16271;DHT22;8243;49.048;8.396;2022-07-22T05:11:00;23.60;55.30
16271;DHT22;8243;49.048;8.396;2022-07-22T05:13:28;23.10;56.60
16271;DHT22;8243;49.048;8.396;2022-07-22T05:15:56;23.40;54.40
16271;DHT22;8243;49.048;8.396;2022-07-22T05:18:25;23.60;53.10
16271;DHT22;8243;49.048;8.396;2022-07-22T05:20:50;23.50;52.70
16271;DHT22;8243;49.048;8.396;2022-07-22T05:23:16;24.00;49.90
16271;DHT22;8243;49.048;8.396;2022-07-22T05:25:41;24.30;45.50
16271;DHT22;8243;49.048;8.396;2022-07-22T05:28:07;23.70;46.50
16271;DHT22;8243;49.048;8.396;2022-07-22T05:30:32;23.60;46.80
16271;DHT22;8243;49.048;8.396;2022-07-22T05:32:58;23.80;45.50
16271;DHT22;8243;49.048;8.396;2022-07-22T05:35:23;24.00;44.30
16271;DHT22;8243;49.048;8.396;2022-07-22T05:37:49;23.90;43.90
16271;DHT22;8243;49.048;8.396;2022-07-22T05:40:14;23.80;44.40
16271;DHT22;8243;49.048;8.396;2022-07-22T05:42:40;24.00;43.10
16271;DHT22;8243;49.048;8.396;2022-07-22T05:45:06;23.60;44.40
16271;DHT22;8243;49.048;8.396;2022-07-22T05:47:32;23.60;44.10
16271;DHT22;8243;49.048;8.396;2022-07-22T05:49:57;24.00;43.10
16271;DHT22;8243;49.048;8.396;2022-07-22T05:52:23;24.20;41.50
16271;DHT22;8243;49.048;8.396;2022-07-22T05:54:48;24.20;40.30
16271;DHT22;8243;49.048;8.396;2022-07-22T05:57:14;23.80;42.00
16271;DHT22;8243;49.048;8.396;2022-07-22T05:59:39;23.30;43.60
16271;DHT22;8243;49.048;8.396;2022-07-22T06:02:06;23.00;45.20
16271;DHT22;8243;49.048;8.396;2022-07-22T06:04:31;23.10;46.20
16271;DHT22;8243;49.048;8.396;2022-07-22T06:06:57;23.30;45.50
16271;DHT22;8243;49.048;8.396;2022-07-22T06:09:23;24.20;42.40
16271;DHT22;8243;49.048;8.396;2022-07-22T06:11:48;24.90;37.70
16271;DHT22;8243;49.048;8.396;2022-07-22T06:14:14;25.00;35.80
16271;DHT22;8243;49.048;8.396;2022-07-22T06:16:39;24.80;36.00
16271;DHT22;8243;49.048;8.396;2022-07-22T06:19:05;24.90;35.40
16271;DHT22;8243;49.048;8.396;2022-07-22T06:21:30;24.90;34.90
16271;DHT22;8243;49.048;8.396;2022-07-22T06:23:56;24.60;34.50
16271;DHT22;8243;49.048;8.396;2022-07-22T06:26:21;24.30;36.20
16271;DHT22;8243;49.048;8.396;2022-07-22T06:28:47;25.00;34.00
16271;DHT22;8243;49.048;8.396;2022-07-22T06:31:13;25.30;29.90
16271;DHT22;8243;49.048;8.396;2022-07-22T06:33:38;25.10;29.80
16271;DHT22;8243;49.048;8.396;2022-07-22T06:36:04;24.80;30.60
16271;DHT22;8243;49.048;8.396;2022-07-22T06:38:30;24.70;30.30
16271;DHT22;8243;49.048;8.396;2022-07-22T06:40:56;24.70;30.90
16271;DHT22;8243;49.048;8.396;2022-07-22T06:43:22;25.40;28.80
16271;DHT22;8243;49.048;8.396;2022-07-22T06:45:48;25.40;28.00
16271;DHT22;8243;49.048;8.396;2022-07-22T06:48:13;25.30;28.30
16271;DHT22;8243;49.048;8.396;2022-07-22T06:50:39;25.20;28.60
16271;DHT22;8243;49.048;8.396;2022-07-22T06:53:05;25.50;27.40
16271;DHT22;8243;49.048;8.396;2022-07-22T06:55:30;25.30;27.50
16271;DHT22;8243;49.048;8.396;2022-07-22T06:57:56;25.20;27.90
16271;DHT22;8243;49.048;8.396;2022-07-22T07:00:21;25.30;27.90
16271;DHT22;8243;49.048;8.396;2022-07-22T07:02:47;25.90;26.50
16271;DHT22;8243;49.048;8.396;2022-07-22T07:05:13;25.70;26.80
16271;DHT22;8243;49.048;8.396;2022-07-22T07:07:39;26.40;26.00
16271;DHT22;8243;49.048;8.396;2022-07-22T07:10:05;26.10;25.70
16271;DHT22;8243;49.048;8.396;2022-07-22T07:12:30;26.70;24.80
16271;DHT22;8243;49.048;8.396;2022-07-22T07:14:56;26.70;24.50
16271;DHT22;8243;49.048;8.396;2022-07-22T07:17:21;26.60;24.90
16271;DHT22;8243;49.048;8.396;2022-07-22T07:19:49;27.10;24.00
16271;DHT22;8243;49.048;8.396;2022-07-22T07:22:14;28.00;21.30
16271;DHT22;8243;49.048;8.396;2022-07-22T07:24:40;27.40;22.10
16271;DHT22;8243;49.048;8.396;2022-07-22T07:27:05;27.70;21.30
16271;DHT22;8243;49.048;8.396;2022-07-22T07:29:31;27.60;21.60
16271;DHT22;8243;49.048;8.396;2022-07-22T07:31:56;27.90;21.10
16271;DHT22;8243;49.048;8.396;2022-07-22T07:34:22;28.20;20.40
16271;DHT22;8243;49.048;8.396;2022-07-22T07:36:47;27.50;21.30
16271;DHT22;8243;49.048;8.396;2022-07-22T07:39:13;26.80;22.80
16271;DHT22;8243;49.048;8.396;2022-07-22T07:41:38;27.00;22.50
16271;DHT22;8243;49.048;8.396;2022-07-22T07:44:06;26.60;23.50
16271;DHT22;8243;49.048;8.396;2022-07-22T07:46:31;26.60;23.80
16271;DHT22;8243;49.048;8.396;2022-07-22T07:48:57;27.00;23.20
16271;DHT22;8243;49.048;8.396;2022-07-22T07:51:22;27.90;21.70
16271;DHT22;8243;49.048;8.396;2022-07-22T07:53:48;28.30;21.10
16271;DHT22;8243;49.048;8.396;2022-07-22T07:56:14;28.60;19.80
16271;DHT22;8243;49.048;8.396;2022-07-22T07:58:39;28.10;20.50
16271;DHT22;8243;49.048;8.396;2022-07-22T08:01:05;28.60;19.70
16271;DHT22;8243;49.048;8.396;2022-07-22T08:03:31;29.40;18.30
16271;DHT22;8243;49.048;8.396;2022-07-22T08:05:56;29.00;18.20
16271;DHT22;8243;49.048;8.396;2022-07-22T08:08:23;28.40;19.40
16271;DHT22;8243;49.048;8.396;2022-07-22T08:10:48;28.60;19.80
16271;DHT22;8243;49.048;8.396;2022-07-22T08:13:14;29.30;18.10
16271;DHT22;8243;49.048;8.396;2022-07-22T08:15:40;29.10;18.40
16271;DHT22;8243;49.048;8.396;2022-07-22T08:18:06;28.40;19.40
16271;DHT22;8243;49.048;8.396;2022-07-22T08:20:31;28.60;19.40
16271;DHT22;8243;49.048;8.396;2022-07-22T08:22:57;29.50;18.30
16271;DHT22;8243;49.048;8.396;2022-07-22T08:25:23;29.20;18.50
16271;DHT22;8243;49.048;8.396;2022-07-22T08:27:48;29.30;18.00
16271;DHT22;8243;49.048;8.396;2022-07-22T08:30:15;29.10;18.60
16271;DHT22;8243;49.048;8.396;2022-07-22T08:32:41;28.50;19.50
16271;DHT22;8243;49.048;8.396;2022-07-22T08:35:06;28.80;18.90
16271;DHT22;8243;49.048;8.396;2022-07-22T08:37:32;29.20;18.80
16271;DHT22;8243;49.048;8.396;2022-07-22T08:39:58;29.70;17.60
16271;DHT22;8243;49.048;8.396;2022-07-22T08:42:24;29.50;17.70
16271;DHT22;8243;49.048;8.396;2022-07-22T08:44:50;29.80;17.40
16271;DHT22;8243;49.048;8.396;2022-07-22T08:47:21;30.50;15.80
16271;DHT22;8243;49.048;8.396;2022-07-22T08:49:47;29.90;16.70
16271;DHT22;8243;49.048;8.396;2022-07-22T08:52:13;30.00;16.70
16271;DHT22;8243;49.048;8.396;2022-07-22T08:54:38;29.90;16.60
16271;DHT22;8243;49.048;8.396;2022-07-22T08:57:04;29.40;17.50
16271;DHT22;8243;49.048;8.396;2022-07-22T08:59:29;30.50;16.30
16271;DHT22;8243;49.048;8.396;2022-07-22T09:02:09;31.00;15.50
16271;DHT22;8243;49.048;8.396;2022-07-22T09:05:03;29.70;16.70
16271;DHT22;8243;49.048;8.396;2022-07-22T09:09:58;29.20;18.00
16271;DHT22;8243;49.048;8.396;2022-07-22T09:12:24;28.80;18.20
16271;DHT22;8243;49.048;8.396;2022-07-22T09:14:55;28.30;18.90
16271;DHT22;8243;49.048;8.396;2022-07-22T09:17:31;28.30;19.40
16271;DHT22;8243;49.048;8.396;2022-07-22T09:19:58;28.50;19.20
16271;DHT22;8243;49.048;8.396;2022-07-22T09:22:42;29.80;17.00
16271;DHT22;8243;49.048;8.396;2022-07-22T09:25:18;29.90;16.10
16271;DHT22;8243;49.048;8.396;2022-07-22T09:27:48;29.30;17.10
16271;DHT22;8243;49.048;8.396;2022-07-22T09:30:19;29.60;16.40
16271;DHT22;8243;49.048;8.396;2022-07-22T09:32:45;29.40;16.90
16271;DHT22;8243;49.048;8.396;2022-07-22T09:35:11;29.70;16.50
16271;DHT22;8243;49.048;8.396;2022-07-22T09:37:46;30.00;15.60
16271;DHT22;8243;49.048;8.396;2022-07-22T09:40:17;29.30;16.70
16271;DHT22;8243;49.048;8.396;2022-07-22T09:42:45;29.50;17.00
16271;DHT22;8243;49.048;8.396;2022-07-22T09:45:11;29.40;16.30
16271;DHT22;8243;49.048;8.396;2022-07-22T09:47:36;29.90;15.30
16271;DHT22;8243;49.048;8.396;2022-07-22T09:52:46;30.20;15.20
16271;DHT22;8243;49.048;8.396;2022-07-22T09:55:14;29.70;15.60
16271;DHT22;8243;49.048;8.396;2022-07-22T09:57:41;29.30;16.30
16271;DHT22;8243;49.048;8.396;2022-07-22T10:00:07;29.10;16.10
16271;DHT22;8243;49.048;8.396;2022-07-22T10:02:50;29.60;16.00
16271;DHT22;8243;49.048;8.396;2022-07-22T10:05:19;29.80;16.20
16271;DHT22;8243;49.048;8.396;2022-07-22T10:07:46;29.70;15.80
16271;DHT22;8243;49.048;8.396;2022-07-22T10:10:15;29.80;14.80
16271;DHT22;8243;49.048;8.396;2022-07-22T10:12:42;30.00;14.60
16271;DHT22;8243;49.048;8.396;2022-07-22T10:15:09;30.20;14.40
16271;DHT22;8243;49.048;8.396;2022-07-22T10:17:37;30.20;14.30
16271;DHT22;8243;49.048;8.396;2022-07-22T10:20:05;30.50;13.50
16271;DHT22;8243;49.048;8.396;2022-07-22T10:22:53;30.60;14.10
16271;DHT22;8243;49.048;8.396;2022-07-22T10:25:20;30.20;14.40
16271;DHT22;8243;49.048;8.396;2022-07-22T10:30:22;30.10;15.20
16271;DHT22;8243;49.048;8.396;2022-07-22T10:33:13;30.50;13.30
16271;DHT22;8243;49.048;8.396;2022-07-22T10:35:56;30.70;13.30
16271;DHT22;8243;49.048;8.396;2022-07-22T10:38:23;30.60;13.90
16271;DHT22;8243;49.048;8.396;2022-07-22T10:40:59;31.00;13.20
16271;DHT22;8243;49.048;8.396;2022-07-22T10:43:29;30.80;12.90
16271;DHT22;8243;49.048;8.396;2022-07-22T10:45:58;30.70;12.80
16271;DHT22;8243;49.048;8.396;2022-07-22T10:53:47;31.00;13.00
16271;DHT22;8243;49.048;8.396;2022-07-22T10:58:45;29.80;14.50
16271;DHT22;8243;49.048;8.396;2022-07-22T11:01:14;29.80;14.80
16271;DHT22;8243;49.048;8.396;2022-07-22T11:03:43;30.50;14.40
16271;DHT22;8243;49.048;8.396;2022-07-22T11:08:51;30.20;13.60
16271;DHT22;8243;49.048;8.396;2022-07-22T11:11:18;30.00;14.70
16271;DHT22;8243;49.048;8.396;2022-07-22T11:13:44;30.40;13.70
16271;DHT22;8243;49.048;8.396;2022-07-22T11:18:56;29.60;14.60
16271;DHT22;8243;49.048;8.396;2022-07-22T11:21:28;29.80;15.10
16271;DHT22;8243;49.048;8.396;2022-07-22T11:23:56;30.20;14.10
16271;DHT22;8243;49.048;8.396;2022-07-22T11:26:35;30.30;13.80
16271;DHT22;8243;49.048;8.396;2022-07-22T11:29:02;30.10;13.90
16271;DHT22;8243;49.048;8.396;2022-07-22T11:31:27;30.10;13.90
16271;DHT22;8243;49.048;8.396;2022-07-22T11:34:04;30.10;14.50
16271;DHT22;8243;49.048;8.396;2022-07-22T11:36:35;30.30;13.70
16271;DHT22;8243;49.048;8.396;2022-07-22T11:39:02;30.20;13.30
16271;DHT22;8243;49.048;8.396;2022-07-22T11:41:29;30.10;14.00
16271;DHT22;8243;49.048;8.396;2022-07-22T11:43:56;30.50;13.20
16271;DHT22;8243;49.048;8.396;2022-07-22T11:46:21;31.00;13.20
16271;DHT22;8243;49.048;8.396;2022-07-22T11:48:48;31.30;12.10
16271;DHT22;8243;49.048;8.396;2022-07-22T11:51:14;31.30;11.80
16271;DHT22;8243;49.048;8.396;2022-07-22T11:53:41;31.40;11.60
16271;DHT22;8243;49.048;8.396;2022-07-22T11:56:09;31.30;11.70
16271;DHT22;8243;49.048;8.396;2022-07-22T11:58:46;31.50;11.30
16271;DHT22;8243;49.048;8.396;2022-07-22T12:01:14;31.70;11.30
16271;DHT22;8243;49.048;8.396;2022-07-22T12:03:47;31.90;10.60
16271;DHT22;8243;49.048;8.396;2022-07-22T12:06:15;31.60;11.70
16271;DHT22;8243;49.048;8.396;2022-07-22T12:08:52;31.10;11.70
16271;DHT22;8243;49.048;8.396;2022-07-22T12:11:20;31.20;12.00
16271;DHT22;8243;49.048;8.396;2022-07-22T12:13:48;31.20;12.90
16271;DHT22;8243;49.048;8.396;2022-07-22T12:16:28;31.10;11.60
16271;DHT22;8243;49.048;8.396;2022-07-22T12:18:57;30.70;14.40
16271;DHT22;8243;49.048;8.396;2022-07-22T12:21:25;30.80;15.50
16271;DHT22;8243;49.048;8.396;2022-07-22T12:24:02;31.50;14.30
16271;DHT22;8243;49.048;8.396;2022-07-22T12:29:28;31.10;14.60
16271;DHT22;8243;49.048;8.396;2022-07-22T12:32:00;31.30;14.50
16271;DHT22;8243;49.048;8.396;2022-07-22T12:37:19;31.90;13.40
16271;DHT22;8243;49.048;8.396;2022-07-22T12:40:00;31.60;13.50
16271;DHT22;8243;49.048;8.396;2022-07-22T12:42:30;31.50;13.10
16271;DHT22;8243;49.048;8.396;2022-07-22T12:45:16;31.60;14.30
16271;DHT22;8243;49.048;8.396;2022-07-22T12:47:48;31.80;13.20
16271;DHT22;8243;49.048;8.396;2022-07-22T12:50:34;31.60;13.80
16271;DHT22;8243;49.048;8.396;2022-07-22T12:53:11;31.70;13.30
16271;DHT22;8243;49.048;8.396;2022-07-22T12:58:07;32.30;12.10
16271;DHT22;8243;49.048;8.396;2022-07-22T13:00:39;32.30;12.10
16271;DHT22;8243;49.048;8.396;2022-07-22T13:03:05;32.40;13.20
16271;DHT22;8243;49.048;8.396;2022-07-22T13:05:31;32.30;11.40
16271;DHT22;8243;49.048;8.396;2022-07-22T13:07:56;32.00;12.40
16271;DHT22;8243;49.048;8.396;2022-07-22T13:10:24;32.10;12.10
16271;DHT22;8243;49.048;8.396;2022-07-22T13:12:50;32.20;12.50
16271;DHT22;8243;49.048;8.396;2022-07-22T13:15:16;32.60;12.40
16271;DHT22;8243;49.048;8.396;2022-07-22T13:17:42;32.30;12.10
16271;DHT22;8243;49.048;8.396;2022-07-22T13:20:09;32.10;12.00
16271;DHT22;8243;49.048;8.396;2022-07-22T13:22:35;32.10;12.30
16271;DHT22;8243;49.048;8.396;2022-07-22T13:25:01;32.00;12.20
16271;DHT22;8243;49.048;8.396;2022-07-22T13:27:27;31.60;13.40
16271;DHT22;8243;49.048;8.396;2022-07-22T13:29:52;31.90;12.50
16271;DHT22;8243;49.048;8.396;2022-07-22T13:32:18;31.80;12.20
16271;DHT22;8243;49.048;8.396;2022-07-22T13:34:43;32.00;11.80
16271;DHT22;8243;49.048;8.396;2022-07-22T13:37:09;32.20;12.00
16271;DHT22;8243;49.048;8.396;2022-07-22T13:39:35;32.50;11.80
16271;DHT22;8243;49.048;8.396;2022-07-22T13:42:01;32.40;11.10
16271;DHT22;8243;49.048;8.396;2022-07-22T13:44:26;32.00;12.90
16271;DHT22;8243;49.048;8.396;2022-07-22T13:46:52;32.30;12.50
16271;DHT22;8243;49.048;8.396;2022-07-22T13:49:17;32.40;11.80
16271;DHT22;8243;49.048;8.396;2022-07-22T13:51:43;32.10;12.10
16271;DHT22;8243;49.048;8.396;2022-07-22T13:54:09;32.40;12.10
16271;DHT22;8243;49.048;8.396;2022-07-22T13:56:34;32.10;11.70
16271;DHT22;8243;49.048;8.396;2022-07-22T13:59:00;32.30;11.70
16271;DHT22;8243;49.048;8.396;2022-07-22T14:01:27;32.10;12.10
16271;DHT22;8243;49.048;8.396;2022-07-22T14:03:52;32.20;11.60
16271;DHT22;8243;49.048;8.396;2022-07-22T14:06:18;32.40;11.70
16271;DHT22;8243;49.048;8.396;2022-07-22T14:08:44;32.70;11.10
16271;DHT22;8243;49.048;8.396;2022-07-22T14:11:10;32.40;10.80
16271;DHT22;8243;49.048;8.396;2022-07-22T14:13:36;31.80;11.80
16271;DHT22;8243;49.048;8.396;2022-07-22T14:16:02;31.80;12.10
16271;DHT22;8243;49.048;8.396;2022-07-22T14:18:46;32.00;11.60
16271;DHT22;8243;49.048;8.396;2022-07-22T14:21:12;32.30;11.40
16271;DHT22;8243;49.048;8.396;2022-07-22T14:23:37;32.40;10.50
16271;DHT22;8243;49.048;8.396;2022-07-22T14:26:03;32.50;11.00
16271;DHT22;8243;49.048;8.396;2022-07-22T14:28:29;32.20;10.70
16271;DHT22;8243;49.048;8.396;2022-07-22T14:30:55;32.10;11.10
16271;DHT22;8243;49.048;8.396;2022-07-22T14:33:21;32.00;10.70
16271;DHT22;8243;49.048;8.396;2022-07-22T14:35:46;32.00;11.40
16271;DHT22;8243;49.048;8.396;2022-07-22T14:38:12;32.20;10.80
16271;DHT22;8243;49.048;8.396;2022-07-22T14:40:38;32.40;10.60
16271;DHT22;8243;49.048;8.396;2022-07-22T14:43:03;32.40;10.30
16271;DHT22;8243;49.048;8.396;2022-07-22T14:45:29;32.40;10.40
16271;DHT22;8243;49.048;8.396;2022-07-22T14:47:54;32.60;10.30
16271;DHT22;8243;49.048;8.396;2022-07-22T14:50:20;32.60;9.90
16271;DHT22;8243;49.048;8.396;2022-07-22T14:52:46;32.70;9.70
16271;DHT22;8243;49.048;8.396;2022-07-22T14:55:11;32.70;9.70
16271;DHT22;8243;49.048;8.396;2022-07-22T14:57:37;32.60;9.90
16271;DHT22;8243;49.048;8.396;2022-07-22T15:00:03;32.70;9.60
16271;DHT22;8243;49.048;8.396;2022-07-22T15:02:29;32.50;10.00
16271;DHT22;8243;49.048;8.396;2022-07-22T15:04:54;32.00;10.10
16271;DHT22;8243;49.048;8.396;2022-07-22T15:07:20;32.10;10.20
16271;DHT22;8243;49.048;8.396;2022-07-22T15:09:45;31.90;10.60
16271;DHT22;8243;49.048;8.396;2022-07-22T15:12:11;31.80;10.70
16271;DHT22;8243;49.048;8.396;2022-07-22T15:14:36;32.00;10.10
16271;DHT22;8243;49.048;8.396;2022-07-22T15:17:02;31.80;10.50
16271;DHT22;8243;49.048;8.396;2022-07-22T15:19:28;31.80;10.70
16271;DHT22;8243;49.048;8.396;2022-07-22T15:21:54;31.80;10.60
16271;DHT22;8243;49.048;8.396;2022-07-22T15:24:20;32.00;10.00
16271;DHT22;8243;49.048;8.396;2022-07-22T15:26:45;32.00;10.20
16271;DHT22;8243;49.048;8.396;2022-07-22T15:29:11;32.10;10.50
16271;DHT22;8243;49.048;8.396;2022-07-22T15:31:37;32.10;10.00
16271;DHT22;8243;49.048;8.396;2022-07-22T15:34:02;31.90;10.40
16271;DHT22;8243;49.048;8.396;2022-07-22T15:36:30;31.90;10.30
16271;DHT22;8243;49.048;8.396;2022-07-22T15:38:56;31.90;10.30
16271;DHT22;8243;49.048;8.396;2022-07-22T15:41:22;31.70;10.40
16271;DHT22;8243;49.048;8.396;2022-07-22T15:43:48;31.60;10.60
16271;DHT22;8243;49.048;8.396;2022-07-22T15:46:13;31.70;10.70
16271;DHT22;8243;49.048;8.396;2022-07-22T15:48:39;31.60;10.70
16271;DHT22;8243;49.048;8.396;2022-07-22T15:51:06;31.60;11.20
16271;DHT22;8243;49.048;8.396;2022-07-22T15:53:32;31.80;10.70
16271;DHT22;8243;49.048;8.396;2022-07-22T15:55:58;32.00;10.20
16271;DHT22;8243;49.048;8.396;2022-07-22T15:58:24;32.00;10.60
16271;DHT22;8243;49.048;8.396;2022-07-22T16:01:08;32.30;10.20
16271;DHT22;8243;49.048;8.396;2022-07-22T16:03:34;32.40;10.20
16271;DHT22;8243;49.048;8.396;2022-07-22T16:05:59;32.60;9.60
16271;DHT22;8243;49.048;8.396;2022-07-22T16:08:26;32.30;9.40
16271;DHT22;8243;49.048;8.396;2022-07-22T16:10:52;31.90;9.60
16271;DHT22;8243;49.048;8.396;2022-07-22T16:13:18;31.80;10.60
16271;DHT22;8243;49.048;8.396;2022-07-22T16:15:44;32.00;10.60
16271;DHT22;8243;49.048;8.396;2022-07-22T16:18:10;32.20;9.80